createdAt,value
2022-07-28T00:00:04.282Z,96130.00
2022-07-28T00:00:14.292Z,96132.00
2022-07-28T00:00:24.294Z,96130.00
2022-07-28T00:00:34.294Z,96128.00
2022-07-28T00:00:44.294Z,96128.00
2022-07-28T00:00:55.721Z,96132.00
2022-07-28T00:01:04.383Z,96130.00
2022-07-28T00:01:14.271Z,96130.00
2022-07-28T00:01:24.653Z,96134.00
2022-07-28T00:01:34.428Z,96130.00
2022-07-28T00:01:44.328Z,96128.00
2022-07-28T00:01:54.326Z,96128.00
2022-07-28T00:02:04.381Z,96128.00
2022-07-28T00:02:14.409Z,96128.00
2022-07-28T00:02:24.308Z,96128.00
2022-07-28T00:02:34.307Z,96128.00
2022-07-28T00:02:44.325Z,96128.00
2022-07-28T00:02:54.374Z,96130.00
2022-07-28T00:03:04.342Z,96130.00
2022-07-28T00:03:14.344Z,96130.00
2022-07-28T00:03:24.319Z,96128.00
2022-07-28T00:03:34.273Z,96130.00
2022-07-28T00:03:44.273Z,96130.00
2022-07-28T00:03:54.272Z,96130.00
2022-07-28T00:04:04.263Z,96130.00
2022-07-28T00:04:14.686Z,96126.00
2022-07-28T00:04:24.263Z,96126.00
2022-07-28T00:04:34.266Z,96126.00
2022-07-28T00:04:44.263Z,96126.00
2022-07-28T00:04:54.263Z,96126.00
2022-07-28T00:05:04.271Z,96126.00
2022-07-28T00:05:14.262Z,96128.00
2022-07-28T00:05:24.256Z,96124.00
2022-07-28T00:05:34.504Z,96124.00
2022-07-28T00:05:44.264Z,96124.00
2022-07-28T00:05:54.264Z,96124.00
2022-07-28T00:06:04.263Z,96128.00
2022-07-28T00:06:14.264Z,96122.00
2022-07-28T00:06:24.254Z,96124.00
2022-07-28T00:06:34.264Z,96124.00
2022-07-28T00:06:44.410Z,96128.00
2022-07-28T00:06:54.262Z,96126.00
2022-07-28T00:07:04.254Z,96128.00
2022-07-28T00:07:14.263Z,96128.00
2022-07-28T00:07:24.288Z,96126.00
2022-07-28T00:07:34.254Z,96126.00
2022-07-28T00:07:44.255Z,96126.00
2022-07-28T00:07:54.255Z,96128.00
2022-07-28T00:08:04.256Z,96128.00
2022-07-28T00:08:14.262Z,96128.00
2022-07-28T00:08:24.252Z,96126.00
2022-07-28T00:08:34.255Z,96128.00
2022-07-28T00:08:44.289Z,96128.00
2022-07-28T00:08:54.268Z,96128.00
2022-07-28T00:09:04.255Z,96128.00
2022-07-28T00:09:14.256Z,96130.00
2022-07-28T00:09:24.246Z,96128.00
2022-07-28T00:09:34.514Z,96130.00
2022-07-28T00:09:44.255Z,96130.00
2022-07-28T00:09:59.829Z,96130.00
2022-07-28T00:10:04.258Z,96132.00
2022-07-28T00:10:14.254Z,96130.00
2022-07-28T00:10:24.255Z,96128.00
2022-07-28T00:10:34.249Z,96130.00
2022-07-28T00:10:44.246Z,96130.00
2022-07-28T00:10:54.288Z,96130.00
2022-07-28T00:11:04.657Z,96130.00
2022-07-28T00:11:14.245Z,96128.00
2022-07-28T00:11:24.247Z,96126.00
2022-07-28T00:11:34.248Z,96128.00
2022-07-28T00:11:54.274Z,96132.00
2022-07-28T00:11:55.120Z,96130.00
2022-07-28T00:12:04.247Z,96130.00
2022-07-28T00:12:14.250Z,96128.00
2022-07-28T00:12:24.245Z,96128.00
2022-07-28T00:12:34.271Z,96128.00
2022-07-28T00:12:44.237Z,96128.00
2022-07-28T00:12:54.238Z,96128.00
2022-07-28T00:13:06.801Z,96128.00
2022-07-28T00:13:14.277Z,96132.00
2022-07-28T00:13:24.238Z,96132.00
2022-07-28T00:13:34.237Z,96128.00
2022-07-28T00:13:44.237Z,96128.00
2022-07-28T00:13:54.237Z,96130.00
2022-07-28T00:14:04.237Z,96130.00
2022-07-28T00:14:14.514Z,96128.00
2022-07-28T00:14:24.239Z,96128.00
2022-07-28T00:14:34.237Z,96130.00
2022-07-28T00:14:44.239Z,96126.00
2022-07-28T00:14:54.236Z,96130.00
2022-07-28T00:15:04.255Z,96132.00
2022-07-28T00:15:14.277Z,96132.00
2022-07-28T00:15:24.229Z,96130.00
2022-07-28T00:15:34.229Z,96130.00
2022-07-28T00:15:44.237Z,96130.00
2022-07-28T00:15:54.270Z,96130.00
2022-07-28T00:16:04.312Z,96128.00
2022-07-28T00:16:14.267Z,96130.00
2022-07-28T00:16:24.307Z,96130.00
2022-07-28T00:16:34.273Z,96130.00
2022-07-28T00:16:44.284Z,96132.00
2022-07-28T00:16:54.228Z,96132.00
2022-07-28T00:17:04.239Z,96128.00
2022-07-28T00:17:14.226Z,96130.00
2022-07-28T00:17:24.228Z,96132.00
2022-07-28T00:17:34.249Z,96130.00
2022-07-28T00:17:44.219Z,96130.00
2022-07-28T00:17:54.221Z,96130.00
2022-07-28T00:18:04.218Z,96128.00
2022-07-28T00:18:14.589Z,96130.00
2022-07-28T00:18:24.227Z,96130.00
2022-07-28T00:18:34.220Z,96128.00
2022-07-28T00:18:44.221Z,96128.00
2022-07-28T00:18:54.219Z,96132.00
2022-07-28T00:19:05.242Z,96128.00
2022-07-28T00:19:14.219Z,96128.00
2022-07-28T00:19:24.223Z,96128.00
2022-07-28T00:19:34.359Z,96128.00
2022-07-28T00:19:44.219Z,96128.00
2022-07-28T00:19:54.210Z,96128.00
2022-07-28T00:20:04.219Z,96128.00
2022-07-28T00:20:14.212Z,96128.00
2022-07-28T00:20:24.214Z,96128.00
2022-07-28T00:20:34.211Z,96126.00
2022-07-28T00:20:44.209Z,96128.00
2022-07-28T00:20:54.221Z,96128.00
2022-07-28T00:21:05.650Z,96126.00
2022-07-28T00:21:14.217Z,96128.00
2022-07-28T00:21:24.650Z,96126.00
2022-07-28T00:21:34.221Z,96126.00
2022-07-28T00:21:44.219Z,96124.00
2022-07-28T00:21:54.221Z,96126.00
2022-07-28T00:22:04.210Z,96122.00
2022-07-28T00:22:14.251Z,96124.00
2022-07-28T00:22:24.211Z,96126.00
2022-07-28T00:22:34.211Z,96124.00
2022-07-28T00:22:44.241Z,96126.00
2022-07-28T00:22:54.212Z,96124.00
2022-07-28T00:23:04.211Z,96124.00
2022-07-28T00:23:14.326Z,96124.00
2022-07-28T00:23:24.202Z,96122.00
2022-07-28T00:23:38.690Z,96128.00
2022-07-28T00:23:44.202Z,96124.00
2022-07-28T00:23:54.203Z,96124.00
2022-07-28T00:24:04.209Z,96124.00
2022-07-28T00:24:14.670Z,96124.00
2022-07-28T00:24:24.225Z,96122.00
2022-07-28T00:24:34.221Z,96124.00
2022-07-28T00:24:44.202Z,96122.00
2022-07-28T00:24:54.202Z,96122.00
2022-07-28T00:25:04.205Z,96122.00
2022-07-28T00:25:14.201Z,96124.00
2022-07-28T00:25:24.201Z,96120.00
2022-07-28T00:25:34.221Z,96122.00
2022-07-28T00:25:44.228Z,96122.00
2022-07-28T00:25:54.214Z,96120.00
2022-07-28T00:26:04.203Z,96120.00
2022-07-28T00:26:14.205Z,96122.00
2022-07-28T00:26:24.212Z,96122.00
2022-07-28T00:26:34.203Z,96120.00
2022-07-28T00:26:46.640Z,96122.00
2022-07-28T00:26:54.203Z,96124.00
2022-07-28T00:27:04.202Z,96122.00
2022-07-28T00:27:14.203Z,96122.00
2022-07-28T00:27:24.223Z,96124.00
2022-07-28T00:27:34.202Z,96122.00
2022-07-28T00:27:44.203Z,96122.00
2022-07-28T00:27:54.226Z,96124.00
2022-07-28T00:28:04.193Z,96122.00
2022-07-28T00:28:14.194Z,96122.00
2022-07-28T00:28:24.193Z,96120.00
2022-07-28T00:28:34.194Z,96120.00
2022-07-28T00:28:44.194Z,96120.00
2022-07-28T00:28:54.193Z,96118.00
2022-07-28T00:29:04.193Z,96122.00
2022-07-28T00:29:15.632Z,96120.00
2022-07-28T00:29:24.197Z,96120.00
2022-07-28T00:29:49.831Z,96124.00
2022-07-28T00:29:50.462Z,96120.00
2022-07-28T00:29:54.193Z,96122.00
2022-07-28T00:30:04.194Z,96118.00
2022-07-28T00:30:14.192Z,96120.00
2022-07-28T00:30:24.194Z,96120.00
2022-07-28T00:30:34.214Z,96116.00
2022-07-28T00:30:44.195Z,96118.00
2022-07-28T00:30:54.196Z,96120.00
2022-07-28T00:31:05.054Z,96120.00
2022-07-28T00:31:14.407Z,96116.00
2022-07-28T00:31:24.508Z,96116.00
2022-07-28T00:31:34.442Z,96118.00
2022-07-28T00:31:44.419Z,96118.00
2022-07-28T00:31:54.482Z,96118.00
2022-07-28T00:32:04.429Z,96118.00
2022-07-28T00:32:14.387Z,96118.00
2022-07-28T00:32:24.405Z,96116.00
2022-07-28T00:32:34.387Z,96114.00
2022-07-28T00:32:44.384Z,96118.00
2022-07-28T00:32:54.385Z,96116.00
2022-07-28T00:33:04.709Z,96116.00
2022-07-28T00:33:14.377Z,96114.00
2022-07-28T00:33:24.378Z,96118.00
2022-07-28T00:33:34.375Z,96114.00
2022-07-28T00:33:44.383Z,96116.00
2022-07-28T00:33:54.383Z,96114.00
2022-07-28T00:34:04.376Z,96114.00
2022-07-28T00:34:14.858Z,96116.00
2022-07-28T00:34:26.533Z,96116.00
2022-07-28T00:34:34.466Z,96116.00
2022-07-28T00:34:44.467Z,96118.00
2022-07-28T00:34:54.469Z,96116.00
2022-07-28T00:35:04.464Z,96118.00
2022-07-28T00:35:14.925Z,96120.00
2022-07-28T00:35:30.951Z,96118.00
2022-07-28T00:35:34.467Z,96120.00
2022-07-28T00:35:46.385Z,96118.00
2022-07-28T00:35:54.467Z,96116.00
2022-07-28T00:36:04.456Z,96118.00
2022-07-28T00:36:14.457Z,96118.00
2022-07-28T00:36:25.637Z,96118.00
2022-07-28T00:36:34.457Z,96120.00
2022-07-28T00:36:44.457Z,96120.00
2022-07-28T00:36:54.455Z,96118.00
2022-07-28T00:37:06.643Z,96118.00
2022-07-28T00:37:15.176Z,96116.00
2022-07-28T00:37:24.618Z,96116.00
2022-07-28T00:37:34.627Z,96118.00
2022-07-28T00:37:44.616Z,96118.00
2022-07-28T00:37:54.617Z,96114.00
2022-07-28T00:38:04.645Z,96116.00
2022-07-28T00:38:14.643Z,96116.00
2022-07-28T00:38:24.617Z,96118.00
2022-07-28T00:38:34.617Z,96118.00
2022-07-28T00:38:45.854Z,96118.00
2022-07-28T00:38:54.619Z,96116.00
2022-07-28T00:39:04.619Z,96116.00
2022-07-28T00:39:16.056Z,96116.00
2022-07-28T00:39:24.620Z,96118.00
2022-07-28T00:39:34.616Z,96118.00
2022-07-28T00:39:44.609Z,96118.00
2022-07-28T00:39:54.609Z,96116.00
2022-07-28T00:40:04.625Z,96116.00
2022-07-28T00:40:14.638Z,96116.00
2022-07-28T00:40:24.649Z,96114.00
2022-07-28T00:40:34.610Z,96116.00
2022-07-28T00:40:44.608Z,96116.00
2022-07-28T00:40:54.641Z,96114.00
2022-07-28T00:41:06.046Z,96116.00
2022-07-28T00:41:16.049Z,96116.00
2022-07-28T00:41:26.050Z,96114.00
2022-07-28T00:41:34.609Z,96114.00
2022-07-28T00:41:44.609Z,96116.00
2022-07-28T00:41:54.610Z,96116.00
2022-07-28T00:42:04.609Z,96114.00
2022-07-28T00:42:14.609Z,96112.00
2022-07-28T00:42:24.609Z,96110.00
2022-07-28T00:42:34.600Z,96112.00
2022-07-28T00:42:44.609Z,96110.00
2022-07-28T00:42:54.600Z,96110.00
2022-07-28T00:43:04.601Z,96110.00
2022-07-28T00:43:14.629Z,96112.00
2022-07-28T00:43:24.600Z,96114.00
2022-07-28T00:43:34.600Z,96112.00
2022-07-28T00:43:44.589Z,96112.00
2022-07-28T00:43:54.600Z,96112.00
2022-07-28T00:44:04.599Z,96110.00
2022-07-28T00:44:14.923Z,96108.00
2022-07-28T00:44:24.590Z,96112.00
2022-07-28T00:44:34.621Z,96110.00
2022-07-28T00:44:44.599Z,96110.00
2022-07-28T00:44:54.590Z,96112.00
2022-07-28T00:45:04.591Z,96110.00
2022-07-28T00:45:14.590Z,96110.00
2022-07-28T00:45:24.591Z,96112.00
2022-07-28T00:45:34.599Z,96108.00
2022-07-28T00:45:44.598Z,96110.00
2022-07-28T00:45:56.047Z,96110.00
2022-07-28T00:46:04.591Z,96108.00
2022-07-28T00:46:16.088Z,96110.00
2022-07-28T00:46:26.086Z,96112.00
2022-07-28T00:46:34.640Z,96112.00
2022-07-28T00:46:44.668Z,96110.00
2022-07-28T00:46:54.661Z,96110.00
2022-07-28T00:47:04.628Z,96110.00
2022-07-28T00:47:14.580Z,96110.00
2022-07-28T00:47:24.594Z,96108.00
2022-07-28T00:47:34.592Z,96108.00
2022-07-28T00:47:44.593Z,96106.00
2022-07-28T00:47:54.622Z,96110.00
2022-07-28T00:48:04.623Z,96110.00
2022-07-28T00:48:14.584Z,96108.00
2022-07-28T00:48:24.612Z,96106.00
2022-07-28T00:48:34.611Z,96108.00
2022-07-28T00:48:44.687Z,96108.00
2022-07-28T00:48:54.693Z,96108.00
2022-07-28T00:49:04.663Z,96106.00
2022-07-28T00:49:14.736Z,96108.00
2022-07-28T00:49:24.689Z,96106.00
2022-07-28T00:49:34.633Z,96106.00
2022-07-28T00:49:44.583Z,96108.00
2022-07-28T00:49:56.022Z,96104.00
2022-07-28T00:50:04.584Z,96104.00
2022-07-28T00:50:14.584Z,96104.00
2022-07-28T00:50:24.583Z,96104.00
2022-07-28T00:50:34.592Z,96102.00
2022-07-28T00:50:44.582Z,96104.00
2022-07-28T00:50:54.607Z,96108.00
2022-07-28T00:51:06.044Z,96106.00
2022-07-28T00:51:14.573Z,96106.00
2022-07-28T00:51:24.623Z,96104.00
2022-07-28T00:51:34.573Z,96104.00
2022-07-28T00:51:44.573Z,96104.00
2022-07-28T00:51:54.585Z,96104.00
2022-07-28T00:52:04.574Z,96102.00
2022-07-28T00:52:14.571Z,96104.00
2022-07-28T00:52:24.574Z,96106.00
2022-07-28T00:52:34.582Z,96104.00
2022-07-28T00:52:44.563Z,96104.00
2022-07-28T00:52:54.567Z,96102.00
2022-07-28T00:53:04.594Z,96104.00
2022-07-28T00:53:14.572Z,96104.00
2022-07-28T00:53:24.605Z,96104.00
2022-07-28T00:53:34.576Z,96102.00
2022-07-28T00:53:44.574Z,96104.00
2022-07-28T00:53:54.565Z,96104.00
2022-07-28T00:54:04.573Z,96104.00
2022-07-28T00:54:14.868Z,96102.00
2022-07-28T00:54:24.565Z,96102.00
2022-07-28T00:54:34.581Z,96102.00
2022-07-28T00:54:44.565Z,96102.00
2022-07-28T00:54:54.565Z,96102.00
2022-07-28T00:55:04.564Z,96102.00
2022-07-28T00:55:14.555Z,96102.00
2022-07-28T00:55:24.585Z,96104.00
2022-07-28T00:55:34.591Z,96102.00
2022-07-28T00:56:03.444Z,96104.00
2022-07-28T00:56:05.790Z,96100.00
2022-07-28T00:56:06.620Z,96104.00
2022-07-28T00:56:14.744Z,96106.00
2022-07-28T00:56:24.746Z,96104.00
2022-07-28T00:56:34.747Z,96102.00
2022-07-28T00:56:44.762Z,96100.00
2022-07-28T00:56:54.747Z,96102.00
2022-07-28T00:57:04.763Z,96100.00
2022-07-28T00:57:14.774Z,96102.00
2022-07-28T00:57:24.754Z,96102.00
2022-07-28T00:57:34.748Z,96102.00
2022-07-28T00:57:44.747Z,96100.00
2022-07-28T00:57:54.826Z,96104.00
2022-07-28T00:58:04.741Z,96104.00
2022-07-28T00:58:14.756Z,96102.00
2022-07-28T00:58:24.749Z,96100.00
2022-07-28T00:58:34.804Z,96102.00
2022-07-28T00:58:44.744Z,96100.00
2022-07-28T00:58:54.827Z,96100.00
2022-07-28T00:59:04.737Z,96100.00
2022-07-28T00:59:14.737Z,96100.00
2022-07-28T00:59:24.737Z,96100.00
2022-07-28T00:59:34.737Z,96100.00
2022-07-28T00:59:44.747Z,96098.00
2022-07-28T00:59:54.737Z,96100.00
2022-07-28T01:00:04.737Z,96098.00
2022-07-28T01:00:14.739Z,96098.00
2022-07-28T01:00:24.737Z,96098.00
2022-07-28T01:00:34.736Z,96098.00
2022-07-28T01:00:44.737Z,96098.00
2022-07-28T01:00:56.188Z,96100.00
2022-07-28T01:01:04.837Z,96096.00
2022-07-28T01:01:14.728Z,96094.00
2022-07-28T01:01:24.771Z,96098.00
2022-07-28T01:01:34.795Z,96098.00
2022-07-28T01:01:44.839Z,96096.00
2022-07-28T01:01:54.884Z,96096.00
2022-07-28T01:02:04.862Z,96098.00
2022-07-28T01:02:14.805Z,96098.00
2022-07-28T01:02:24.896Z,96098.00
2022-07-28T01:02:34.979Z,96094.00
2022-07-28T01:02:44.821Z,96094.00
2022-07-28T01:02:54.932Z,96098.00
2022-07-28T01:03:04.789Z,96094.00
2022-07-28T01:03:14.806Z,96096.00
2022-07-28T01:03:24.783Z,96096.00
2022-07-28T01:03:34.732Z,96096.00
2022-07-28T01:03:44.759Z,96096.00
2022-07-28T01:03:54.729Z,96096.00
2022-07-28T01:04:04.719Z,96098.00
2022-07-28T01:04:15.136Z,96096.00
2022-07-28T01:04:24.728Z,96096.00
2022-07-28T01:04:34.729Z,96096.00
2022-07-28T01:04:44.719Z,96092.00
2022-07-28T01:04:54.720Z,96094.00
2022-07-28T01:05:04.720Z,96094.00
2022-07-28T01:05:14.720Z,96094.00
2022-07-28T01:05:43.330Z,96096.00
2022-07-28T01:05:43.844Z,96094.00
2022-07-28T01:05:44.719Z,96096.00
2022-07-28T01:05:54.722Z,96092.00
2022-07-28T01:06:04.710Z,96092.00
2022-07-28T01:06:14.712Z,96094.00
2022-07-28T01:06:24.720Z,96092.00
2022-07-28T01:06:34.717Z,96094.00
2022-07-28T01:06:44.721Z,96092.00
2022-07-28T01:06:54.718Z,96092.00
2022-07-28T01:07:04.719Z,96094.00
2022-07-28T01:07:14.718Z,96092.00
2022-07-28T01:07:24.722Z,96092.00
2022-07-28T01:07:34.710Z,96091.00
2022-07-28T01:07:44.709Z,96091.00
2022-07-28T01:07:54.711Z,96091.00
2022-07-28T01:08:06.149Z,96091.00
2022-07-28T01:08:14.713Z,96092.00
2022-07-28T01:08:24.720Z,96092.00
2022-07-28T01:08:34.754Z,96091.00
2022-07-28T01:08:44.749Z,96089.00
2022-07-28T01:08:54.740Z,96091.00
2022-07-28T01:09:04.737Z,96091.00
2022-07-28T01:09:14.713Z,96089.00
2022-07-28T01:09:24.747Z,96091.00
2022-07-28T01:09:34.710Z,96089.00
2022-07-28T01:09:44.711Z,96089.00
2022-07-28T01:09:54.701Z,96089.00
2022-07-28T01:10:04.700Z,96087.00
2022-07-28T01:10:14.702Z,96087.00
2022-07-28T01:10:24.715Z,96089.00
2022-07-28T01:10:34.704Z,96089.00
2022-07-28T01:10:44.701Z,96085.00
2022-07-28T01:10:54.870Z,96087.00
2022-07-28T01:11:06.140Z,96085.00
2022-07-28T01:11:14.702Z,96087.00
2022-07-28T01:11:24.716Z,96085.00
2022-07-28T01:11:43.123Z,96087.00
2022-07-28T01:11:44.704Z,96087.00
2022-07-28T01:11:54.703Z,96087.00
2022-07-28T01:12:04.701Z,96087.00
2022-07-28T01:12:14.692Z,96085.00
2022-07-28T01:12:24.705Z,96087.00
2022-07-28T01:12:34.701Z,96087.00
2022-07-28T01:12:44.693Z,96087.00
2022-07-28T01:12:54.703Z,96085.00
2022-07-28T01:13:04.694Z,96085.00
2022-07-28T01:13:14.697Z,96087.00
2022-07-28T01:13:24.698Z,96087.00
2022-07-28T01:13:34.692Z,96085.00
2022-07-28T01:13:44.702Z,96085.00
2022-07-28T01:13:54.692Z,96087.00
2022-07-28T01:14:04.712Z,96087.00
2022-07-28T01:14:15.082Z,96089.00
2022-07-28T01:14:24.715Z,96087.00
2022-07-28T01:14:34.684Z,96089.00
2022-07-28T01:14:44.694Z,96085.00
2022-07-28T01:14:54.734Z,96085.00
2022-07-28T01:15:04.720Z,96089.00
2022-07-28T01:15:14.706Z,96085.00
2022-07-28T01:15:24.697Z,96085.00
2022-07-28T01:15:34.685Z,96089.00
2022-07-28T01:15:44.736Z,96085.00
2022-07-28T01:15:54.740Z,96087.00
2022-07-28T01:16:04.751Z,96085.00
2022-07-28T01:16:14.726Z,96087.00
2022-07-28T01:16:24.753Z,96087.00
2022-07-28T01:16:34.739Z,96087.00
2022-07-28T01:16:44.692Z,96085.00
2022-07-28T01:16:54.682Z,96087.00
2022-07-28T01:17:04.675Z,96087.00
2022-07-28T01:17:14.675Z,96083.00
2022-07-28T01:17:24.696Z,96083.00
2022-07-28T01:17:34.675Z,96085.00
2022-07-28T01:17:44.674Z,96085.00
2022-07-28T01:17:54.675Z,96085.00
2022-07-28T01:18:04.673Z,96083.00
2022-07-28T01:18:14.676Z,96081.00
2022-07-28T01:18:24.687Z,96083.00
2022-07-28T01:18:34.676Z,96083.00
2022-07-28T01:18:44.677Z,96083.00
2022-07-28T01:18:54.696Z,96083.00
2022-07-28T01:19:04.702Z,96081.00
2022-07-28T01:19:14.674Z,96083.00
2022-07-28T01:19:24.684Z,96083.00
2022-07-28T01:19:34.675Z,96081.00
2022-07-28T01:19:44.864Z,96081.00
2022-07-28T01:19:54.685Z,96083.00
2022-07-28T01:20:04.676Z,96083.00
2022-07-28T01:20:14.680Z,96081.00
2022-07-28T01:20:24.676Z,96083.00
2022-07-28T01:20:34.675Z,96081.00
2022-07-28T01:20:44.676Z,96081.00
2022-07-28T01:20:54.865Z,96081.00
2022-07-28T01:21:06.106Z,96081.00
2022-07-28T01:21:14.667Z,96083.00
2022-07-28T01:21:24.717Z,96081.00
2022-07-28T01:21:34.676Z,96083.00
2022-07-28T01:21:44.667Z,96081.00
2022-07-28T01:21:54.668Z,96081.00
2022-07-28T01:22:04.666Z,96081.00
2022-07-28T01:22:14.667Z,96083.00
2022-07-28T01:22:24.659Z,96085.00
2022-07-28T01:22:34.667Z,96083.00
2022-07-28T01:22:44.685Z,96081.00
2022-07-28T01:22:54.657Z,96081.00
2022-07-28T01:23:04.657Z,96081.00
2022-07-28T01:23:14.659Z,96079.00
2022-07-28T01:23:24.656Z,96081.00
2022-07-28T01:23:34.657Z,96079.00
2022-07-28T01:23:44.657Z,96079.00
2022-07-28T01:23:54.657Z,96081.00
2022-07-28T01:24:04.668Z,96079.00
2022-07-28T01:24:15.238Z,96077.00
2022-07-28T01:24:24.690Z,96077.00
2022-07-28T01:24:34.658Z,96077.00
2022-07-28T01:24:44.657Z,96079.00
2022-07-28T01:24:54.658Z,96075.00
2022-07-28T01:25:04.657Z,96077.00
2022-07-28T01:25:14.658Z,96073.00
2022-07-28T01:25:24.647Z,96077.00
2022-07-28T01:25:34.659Z,96077.00
2022-07-28T01:25:48.304Z,96075.00
2022-07-28T01:25:54.647Z,96077.00
2022-07-28T01:26:04.648Z,96073.00
2022-07-28T01:26:14.649Z,96075.00
2022-07-28T01:26:24.651Z,96073.00
2022-07-28T01:26:34.652Z,96073.00
2022-07-28T01:26:44.647Z,96073.00
2022-07-28T01:26:54.648Z,96071.00
2022-07-28T01:27:04.648Z,96073.00
2022-07-28T01:27:14.649Z,96073.00
2022-07-28T01:27:24.870Z,96073.00
2022-07-28T01:27:34.648Z,96073.00
2022-07-28T01:27:44.648Z,96073.00
2022-07-28T01:27:54.655Z,96073.00
2022-07-28T01:28:04.647Z,96069.00
2022-07-28T01:28:14.652Z,96071.00
2022-07-28T01:28:24.647Z,96073.00
2022-07-28T01:28:34.649Z,96073.00
2022-07-28T01:28:44.639Z,96071.00
2022-07-28T01:28:54.649Z,96069.00
2022-07-28T01:29:04.640Z,96069.00
2022-07-28T01:29:14.650Z,96071.00
2022-07-28T01:29:24.660Z,96069.00
2022-07-28T01:29:34.640Z,96071.00
2022-07-28T01:29:44.640Z,96069.00
2022-07-28T01:29:54.642Z,96067.00
2022-07-28T01:30:04.644Z,96069.00
2022-07-28T01:30:14.630Z,96069.00
2022-07-28T01:30:27.690Z,96069.00
2022-07-28T01:30:34.656Z,96071.00
2022-07-28T01:30:44.670Z,96071.00
2022-07-28T01:30:54.688Z,96069.00
2022-07-28T01:31:04.907Z,96071.00
2022-07-28T01:31:14.679Z,96067.00
2022-07-28T01:31:24.894Z,96071.00
2022-07-28T01:31:34.701Z,96067.00
2022-07-28T01:31:44.719Z,96071.00
2022-07-28T01:31:54.631Z,96071.00
2022-07-28T01:32:04.634Z,96069.00
2022-07-28T01:32:14.631Z,96067.00
2022-07-28T01:32:24.632Z,96069.00
2022-07-28T01:32:34.646Z,96069.00
2022-07-28T01:32:44.642Z,96069.00
2022-07-28T01:32:54.641Z,96065.00
2022-07-28T01:33:04.633Z,96067.00
2022-07-28T01:33:14.623Z,96069.00
2022-07-28T01:33:24.624Z,96065.00
2022-07-28T01:33:34.622Z,96069.00
2022-07-28T01:33:44.629Z,96069.00
2022-07-28T01:33:54.621Z,96069.00
2022-07-28T01:34:04.622Z,96065.00
2022-07-28T01:34:15.203Z,96069.00
2022-07-28T01:34:24.660Z,96067.00
2022-07-28T01:34:34.663Z,96069.00
2022-07-28T01:34:44.630Z,96067.00
2022-07-28T01:34:54.624Z,96067.00
2022-07-28T01:35:04.622Z,96067.00
2022-07-28T01:35:14.622Z,96065.00
2022-07-28T01:35:24.623Z,96067.00
2022-07-28T01:35:36.062Z,96065.00
2022-07-28T01:35:44.621Z,96065.00
2022-07-28T01:35:54.622Z,96067.00
2022-07-28T01:36:04.697Z,96065.00
2022-07-28T01:36:14.622Z,96067.00
2022-07-28T01:36:24.884Z,96067.00
2022-07-28T01:36:34.614Z,96067.00
2022-07-28T01:36:44.623Z,96065.00
2022-07-28T01:36:54.623Z,96065.00
2022-07-28T01:37:04.615Z,96065.00
2022-07-28T01:37:14.622Z,96063.00
2022-07-28T01:37:24.614Z,96065.00
2022-07-28T01:37:34.614Z,96067.00
2022-07-28T01:37:44.612Z,96065.00
2022-07-28T01:37:54.613Z,96065.00
2022-07-28T01:38:04.613Z,96065.00
2022-07-28T01:38:14.613Z,96067.00
2022-07-28T01:38:24.614Z,96067.00
2022-07-28T01:38:34.613Z,96063.00
2022-07-28T01:38:44.604Z,96065.00
2022-07-28T01:38:54.619Z,96065.00
2022-07-28T01:39:04.613Z,96063.00
2022-07-28T01:39:16.041Z,96067.00
2022-07-28T01:39:24.613Z,96065.00
2022-07-28T01:39:34.663Z,96063.00
2022-07-28T01:39:44.604Z,96063.00
2022-07-28T01:39:54.615Z,96065.00
2022-07-28T01:40:04.623Z,96061.00
2022-07-28T01:40:14.605Z,96063.00
2022-07-28T01:40:24.604Z,96063.00
2022-07-28T01:40:34.604Z,96065.00
2022-07-28T01:40:44.718Z,96063.00
2022-07-28T01:40:54.615Z,96065.00
2022-07-28T01:41:06.043Z,96065.00
2022-07-28T01:41:14.616Z,96065.00
2022-07-28T01:41:26.033Z,96063.00
2022-07-28T01:41:34.895Z,96061.00
2022-07-28T01:41:44.627Z,96065.00
2022-07-28T01:41:54.602Z,96063.00
2022-07-28T01:42:04.595Z,96063.00
2022-07-28T01:42:14.595Z,96063.00
2022-07-28T01:42:24.596Z,96061.00
2022-07-28T01:42:34.596Z,96061.00
2022-07-28T01:42:44.607Z,96065.00
2022-07-28T01:42:54.597Z,96063.00
2022-07-28T01:43:04.624Z,96061.00
2022-07-28T01:43:14.596Z,96063.00
2022-07-28T01:43:24.597Z,96061.00
2022-07-28T01:43:34.594Z,96061.00
2022-07-28T01:43:44.596Z,96059.00
2022-07-28T01:43:54.595Z,96059.00
2022-07-28T01:44:04.586Z,96061.00
2022-07-28T01:44:15.023Z,96059.00
2022-07-28T01:44:25.349Z,96061.00
2022-07-28T01:44:34.586Z,96061.00
2022-07-28T01:44:44.736Z,96061.00
2022-07-28T01:44:54.596Z,96061.00
2022-07-28T01:45:04.590Z,96057.00
2022-07-28T01:45:14.586Z,96059.00
2022-07-28T01:45:24.587Z,96061.00
2022-07-28T01:45:34.697Z,96059.00
2022-07-28T01:45:44.587Z,96059.00
2022-07-28T01:45:54.607Z,96057.00
2022-07-28T01:46:06.050Z,96059.00
2022-07-28T01:46:14.624Z,96059.00
2022-07-28T01:46:24.656Z,96061.00
2022-07-28T01:46:34.669Z,96061.00
2022-07-28T01:46:46.085Z,96057.00
2022-07-28T01:46:56.087Z,96059.00
2022-07-28T01:47:04.627Z,96057.00
2022-07-28T01:47:14.668Z,96061.00
2022-07-28T01:47:24.588Z,96057.00
2022-07-28T01:47:34.589Z,96057.00
2022-07-28T01:47:44.588Z,96059.00
2022-07-28T01:47:54.587Z,96061.00
2022-07-28T01:48:04.597Z,96059.00
2022-07-28T01:48:14.579Z,96057.00
2022-07-28T01:48:24.580Z,96061.00
2022-07-28T01:48:34.660Z,96057.00
2022-07-28T01:48:44.604Z,96059.00
2022-07-28T01:48:54.615Z,96057.00
2022-07-28T01:49:04.596Z,96059.00
2022-07-28T01:49:14.684Z,96057.00
2022-07-28T01:49:24.777Z,96057.00
2022-07-28T01:49:34.578Z,96057.00
2022-07-28T01:49:44.580Z,96059.00
2022-07-28T01:49:54.639Z,96059.00
2022-07-28T01:50:04.578Z,96057.00
2022-07-28T01:50:14.571Z,96059.00
2022-07-28T01:50:24.581Z,96057.00
2022-07-28T01:50:34.578Z,96057.00
2022-07-28T01:50:44.578Z,96057.00
2022-07-28T01:50:54.580Z,96059.00
2022-07-28T01:51:06.017Z,96055.00
2022-07-28T01:51:14.577Z,96059.00
2022-07-28T01:51:24.650Z,96057.00
2022-07-28T01:51:34.569Z,96057.00
2022-07-28T01:51:44.658Z,96057.00
2022-07-28T01:51:54.669Z,96057.00
2022-07-28T01:52:06.010Z,96057.00
2022-07-28T01:52:14.570Z,96057.00
2022-07-28T01:52:24.569Z,96057.00
2022-07-28T01:52:34.595Z,96057.00
2022-07-28T01:52:44.590Z,96059.00
2022-07-28T01:52:54.568Z,96059.00
2022-07-28T01:53:04.578Z,96057.00
2022-07-28T01:53:14.569Z,96057.00
2022-07-28T01:53:24.571Z,96055.00
2022-07-28T01:53:37.733Z,96057.00
2022-07-28T01:53:44.571Z,96059.00
2022-07-28T01:53:54.570Z,96057.00
2022-07-28T01:54:04.571Z,96057.00
2022-07-28T01:54:15.024Z,96055.00
2022-07-28T01:54:24.565Z,96059.00
2022-07-28T01:54:34.560Z,96059.00
2022-07-28T01:54:44.559Z,96057.00
2022-07-28T01:54:54.599Z,96057.00
2022-07-28T01:55:04.580Z,96057.00
2022-07-28T01:55:14.563Z,96059.00
2022-07-28T01:55:24.551Z,96057.00
2022-07-28T01:55:34.552Z,96059.00
2022-07-28T01:55:44.561Z,96057.00
2022-07-28T01:55:54.560Z,96057.00
2022-07-28T01:56:04.552Z,96055.00
2022-07-28T01:56:14.551Z,96057.00
2022-07-28T01:56:24.556Z,96057.00
2022-07-28T01:56:34.570Z,96059.00
2022-07-28T01:56:44.567Z,96057.00
2022-07-28T01:56:54.564Z,96055.00
2022-07-28T01:57:04.552Z,96057.00
2022-07-28T01:57:14.581Z,96053.00
2022-07-28T01:57:24.551Z,96053.00